Time;durP1;ratioP1;P1;durP2;ratioP2;P2;SDS_P1;SDS_P2;PMS_P1;PMS_P2;Temp;Humidity;BMP_temperature;BMP_pressure;BME280_temperature;BME280_humidity;BME280_pressure;Samples;Min_cycle;Max_cycle;Signal;HPM_P1;HPM_P2
2022/10/09 00:01:22;;;;;;;7.38;4.05;;;;;;;9.61;100.00;100371.66;5093991;28;20027;-79
2022/10/09 00:03:50;;;;;;;8.20;3.83;;;;;;;9.48;100.00;100352.97;5093982;28;20489;-79
2022/10/09 00:06:22;;;;;;;8.95;4.13;;;;;;;9.53;100.00;100365.00;5093705;28;20062;-79
2022/10/09 00:08:47;;;;;;;8.80;4.20;;;;;;;9.53;100.00;100362.38;5093721;28;20020;-79
2022/10/09 00:11:21;;;;;;;8.45;4.47;;;;;;;9.52;100.00;100365.88;5093710;28;20031;-79
2022/10/09 00:13:48;;;;;;;12.30;7.75;;;;;;;9.48;100.00;100365.97;5093475;28;20020;-79
2022/10/09 00:16:14;;;;;;;10.02;5.05;;;;;;;9.44;100.00;100364.38;5092758;28;20111;-79
2022/10/09 00:18:40;;;;;;;7.38;4.45;;;;;;;9.47;100.00;100368.63;5093659;28;20024;-79
2022/10/09 00:21:16;;;;;;;6.15;4.05;;;;;;;9.41;100.00;100361.00;5093757;28;20031;-79
2022/10/09 00:23:41;;;;;;;11.93;7.15;;;;;;;9.35;100.00;100356.81;5093510;28;20030;-79
2022/10/09 00:26:07;;;;;;;6.95;4.45;;;;;;;9.33;100.00;100369.03;5093637;28;20030;-79
2022/10/09 00:28:32;;;;;;;7.78;4.50;;;;;;;9.25;100.00;100363.22;5093241;28;20514;-79
2022/10/09 00:30:57;;;;;;;8.23;5.20;;;;;;;9.30;100.00;100378.66;5093471;28;20556;-79
2022/10/09 00:33:23;;;;;;;7.45;4.18;;;;;;;9.22;100.00;100373.69;5093355;28;20016;-79
2022/10/09 00:35:49;;;;;;;5.20;4.22;;;;;;;9.18;100.00;100372.06;5093124;28;20056;-79
2022/10/09 00:38:14;;;;;;;7.97;4.25;;;;;;;9.17;100.00;100376.44;5093379;28;20095;-79
2022/10/09 00:40:40;;;;;;;6.97;4.25;;;;;;;9.15;100.00;100369.59;5093032;28;20023;-79
2022/10/09 00:43:16;;;;;;;7.03;4.40;;;;;;;9.16;100.00;100373.88;5093080;28;20050;-79
2022/10/09 00:45:55;;;;;;;8.40;3.70;;;;;;;9.10;100.00;100372.31;5093179;28;20024;-79
2022/10/09 00:48:21;;;;;;;6.55;3.92;;;;;;;9.12;100.00;100393.91;5093318;28;20023;-79
2022/10/09 00:50:53;;;;;;;5.25;3.75;;;;;;;8.99;100.00;100361.38;5092966;28;20031;-79
2022/10/09 00:53:22;;;;;;;7.40;3.95;;;;;;;9.04;100.00;100387.22;5093107;28;20016;-79
2022/10/09 00:55:48;;;;;;;7.43;4.05;;;;;;;8.93;100.00;100379.72;5092567;28;20459;-79
2022/10/09 00:58:14;;;;;;;5.47;3.58;;;;;;;8.89;100.00;100380.69;5093084;28;20020;-79
2022/10/09 01:00:39;;;;;;;9.60;3.88;;;;;;;8.93;100.00;100400.50;5092664;28;20581;-79
2022/10/09 01:03:05;;;;;;;9.77;4.15;;;;;;;8.81;100.00;100380.94;5092945;28;20020;-79
2022/10/09 01:05:51;;;;;;;5.28;3.63;;;;;;;8.85;100.00;100397.28;5092749;28;20042;-79
2022/10/09 01:08:23;;;;;;;7.85;3.80;;;;;;;8.69;100.00;100378.69;5092723;28;20052;-79
2022/10/09 01:11:19;;;;;;;6.88;4.00;;;;;;;8.79;100.00;100411.28;5092520;28;20146;-79
2022/10/09 01:13:59;;;;;;;7.50;3.88;;;;;;;8.72;100.00;100410.63;5029766;28;20033;-79
2022/10/09 01:16:28;;;;;;;5.90;4.28;;;;;;;8.62;100.00;100396.16;5029734;28;20026;-79
2022/10/09 01:19:09;;;;;;;9.73;4.30;;;;;;;8.62;100.00;100410.88;5029665;28;20365;-79
2022/10/09 01:21:42;;;;;;;9.90;5.20;;;;;;;8.60;100.00;100405.75;5030025;28;20029;-79
2022/10/09 01:24:16;;;;;;;7.05;5.10;;;;;;;8.59;100.00;100409.22;5029883;28;20040;-79
2022/10/09 01:27:12;;;;;;;7.47;4.38;;;;;;;8.56;100.00;100418.84;5029476;28;20029;-79
2022/10/09 01:29:43;;;;;;;8.25;4.85;;;;;;;8.44;100.00;100402.69;5029663;28;20013;-79
2022/10/09 01:32:12;;;;;;;8.93;4.80;;;;;;;8.44;100.00;100412.22;5029805;28;20416;-79
2022/10/09 01:34:40;;;;;;;9.07;4.90;;;;;;;8.38;100.00;100410.63;5029559;28;20033;-79
2022/10/09 01:37:07;;;;;;;7.93;4.32;;;;;;;8.31;100.00;100413.41;5029632;28;20168;-79
2022/10/09 01:39:34;;;;;;;9.65;4.90;;;;;;;8.32;100.00;100428.91;5029607;28;20477;-79
2022/10/09 01:42:00;;;;;;;9.05;5.15;;;;;;;8.27;100.00;100416.97;5029767;28;20029;-79
2022/10/09 01:44:28;;;;;;;9.13;4.93;;;;;;;8.29;100.00;100425.53;4996562;28;20033;-79
2022/10/09 01:46:54;;;;;;;9.00;4.90;;;;;;;8.19;100.00;100417.16;5029378;28;20044;-79
2022/10/09 01:49:32;;;;;;;8.65;4.55;;;;;;;8.24;100.00;100438.63;5029584;28;20025;-79
2022/10/09 01:52:34;;;;;;;11.68;5.28;;;;;;;8.22;100.00;100437.84;5091706;28;20400;-79
2022/10/09 01:55:20;;;;;;;9.60;4.57;;;;;;;8.18;100.00;100451.78;5090866;28;20017;-79
2022/10/09 01:58:00;;;;;;;12.05;4.38;;;;;;;8.12;100.00;100444.13;5091358;28;20043;-79
2022/10/09 02:00:29;;;;;;;11.93;4.90;;;;;;;8.02;100.00;100430.53;5092077;28;20455;-79
2022/10/09 02:02:56;;;;;;;11.55;5.00;;;;;;;7.96;100.00;100438.44;5091839;28;20599;-79
2022/10/09 02:05:25;;;;;;;7.60;4.07;;;;;;;7.96;100.00;100444.50;5092052;28;20134;-79
2022/10/09 02:07:51;;;;;;;10.23;4.85;;;;;;;7.88;100.00;100430.84;5092193;28;20043;-79
2022/10/09 02:10:19;;;;;;;11.90;4.75;;;;;;;7.85;100.00;100430.06;5091836;28;20016;-79
2022/10/09 02:12:56;;;;;;;7.82;4.20;;;;;;;7.87;100.00;100449.03;5091652;28;20483;-79
2022/10/09 02:15:27;;;;;;;8.35;3.95;;;;;;;7.79;100.00;100440.56;5091987;28;20016;-79
2022/10/09 02:17:57;;;;;;;8.35;3.95;;;;;;;7.83;100.00;100460.34;5091789;28;20089;-79
2022/10/09 02:20:35;;;;;;;7.32;3.45;;;;;;;7.77;100.00;100448.38;5091953;28;20032;-79
2022/10/09 02:23:07;;;;;;;7.45;4.20;;;;;;;7.71;100.00;100448.50;5091566;28;20020;-79
2022/10/09 02:25:34;;;;;;;5.90;3.72;;;;;;;7.69;100.00;100451.16;5091636;28;20463;-79
2022/10/09 02:28:00;;;;;;;7.40;3.83;;;;;;;7.71;100.00;100456.28;5091764;28;20474;-79
2022/10/09 02:30:32;;;;;;;8.68;4.20;;;;;;;7.66;100.00;100463.31;5091932;28;20043;-79
2022/10/09 02:32:58;;;;;;;7.72;3.95;;;;;;;7.58;100.00;100450.50;5091552;28;20024;-79
2022/10/09 02:35:23;;;;;;;9.50;4.35;;;;;;;7.62;100.00;100465.13;5091619;28;20024;-79
2022/10/09 02:37:48;;;;;;;7.90;4.30;;;;;;;7.53;100.00;100462.72;5091951;28;20030;-79
2022/10/09 02:40:14;;;;;;;7.35;4.13;;;;;;;7.49;100.00;100461.94;5095787;28;20046;-79
2022/10/09 02:42:39;;;;;;;6.68;4.18;;;;;;;7.47;100.00;100461.13;5095486;28;20477;-79
2022/10/09 02:45:06;;;;;;;8.23;4.18;;;;;;;7.52;100.00;100475.72;5094276;28;20031;-79
2022/10/09 02:47:31;;;;;;;6.13;3.95;;;;;;;7.45;100.00;100472.41;5095429;28;20027;-79
2022/10/09 02:49:56;;;;;;;7.10;4.15;;;;;;;7.45;100.00;100472.41;5095171;28;20020;-79
2022/10/09 02:52:22;;;;;;;8.65;4.78;;;;;;;7.45;100.00;100475.00;5095315;28;20016;-79
2022/10/09 02:54:47;;;;;;;9.43;4.40;;;;;;;7.51;100.00;100490.44;5095016;28;20059;-79
2022/10/09 02:57:12;;;;;;;10.18;4.97;;;;;;;7.42;100.00;100472.50;5095453;28;20038;-79
2022/10/09 02:59:38;;;;;;;8.48;5.10;;;;;;;7.42;100.00;100482.84;5095202;28;20595;-79
2022/10/09 03:02:03;;;;;;;7.60;4.93;;;;;;;7.38;100.00;100492.44;5094881;28;20027;-79
2022/10/09 03:04:28;;;;;;;8.82;5.18;;;;;;;7.37;100.00;100489.84;5095168;28;20078;-79
2022/10/09 03:06:53;;;;;;;9.73;4.78;;;;;;;7.33;100.00;100477.84;5095037;28;20097;-79
2022/10/09 03:09:19;;;;;;;12.43;4.90;;;;;;;7.29;100.00;100482.25;5095243;28;20016;-79
2022/10/09 03:11:44;;;;;;;8.35;4.78;;;;;;;7.25;100.00;100483.19;5094768;28;20035;-79
2022/10/09 03:14:10;;;;;;;6.97;4.30;;;;;;;7.23;100.00;100496.16;5094954;28;20027;-79
2022/10/09 03:16:35;;;;;;;7.18;4.78;;;;;;;7.21;100.00;100491.91;5094817;28;20016;-79
2022/10/09 03:19:00;;;;;;;6.38;4.15;;;;;;;7.21;100.00;100497.09;5094715;28;20031;-79
2022/10/09 03:21:27;;;;;;;8.88;4.22;;;;;;;7.20;100.00;100498.78;5094841;28;20046;-79
2022/10/09 03:23:53;;;;;;;7.50;4.35;;;;;;;7.24;100.00;100507.38;5094925;28;20024;-79
2022/10/09 03:26:21;;;;;;;10.77;4.45;;;;;;;7.23;100.00;100516.03;5094853;28;20023;-79
2022/10/09 03:28:49;;;;;;;6.93;4.07;;;;;;;7.23;100.00;100516.03;5094496;28;20028;-79
2022/10/09 03:31:16;;;;;;;5.88;3.80;;;;;;;7.20;100.00;100514.34;5094647;28;20040;-79
2022/10/09 03:33:41;;;;;;;6.80;3.90;;;;;;;7.18;100.00;100520.47;5094336;28;20031;-79
2022/10/09 03:36:08;;;;;;;8.25;4.28;;;;;;;7.11;100.00;100513.66;5094274;28;20024;-79
2022/10/09 03:38:34;;;;;;;15.30;4.00;;;;;;;7.15;100.00;100517.91;5094621;28;20066;-79
2022/10/09 03:41:01;;;;;;;10.65;4.05;;;;;;;7.17;100.00;100529.97;5094343;28;20023;-79
2022/10/09 03:43:27;;;;;;;12.43;4.40;;;;;;;7.15;100.00;100526.53;5094455;28;20024;-79
2022/10/09 03:45:53;;;;;;;10.82;4.45;;;;;;;7.12;100.00;100533.50;5093047;28;20030;-79
2022/10/09 03:48:19;;;;;;;6.50;5.07;;;;;;;7.03;100.00;100531.09;5094369;28;20028;-79
2022/10/09 03:50:44;;;;;;;13.48;5.70;;;;;;;6.93;100.00;100523.50;5093918;28;20344;-79
2022/10/09 03:53:11;;;;;;;8.00;5.25;;;;;;;6.98;100.00;100539.78;5094693;28;20416;-79
2022/10/09 03:55:38;;;;;;;10.23;5.32;;;;;;;6.97;100.00;100550.19;5093966;28;20024;-79
2022/10/09 03:58:04;;;;;;;8.00;5.25;;;;;;;6.88;100.00;100545.19;5093970;28;20080;-79
2022/10/09 04:00:29;;;;;;;8.00;5.07;;;;;;;6.93;100.00;100556.31;5094132;28;20099;-79
2022/10/09 04:02:55;;;;;;;10.25;5.60;;;;;;;6.84;100.00;100538.34;5093773;28;20103;-79
2022/10/09 04:05:21;;;;;;;9.93;5.63;;;;;;;6.87;100.00;100554.69;5093861;28;20024;-79
2022/10/09 04:07:46;;;;;;;11.18;5.72;;;;;;;6.88;100.00;100563.31;5094150;28;20012;-79
2022/10/09 04:10:11;;;;;;;11.35;5.40;;;;;;;6.74;100.00;100535.03;5093973;28;20097;-79
2022/10/09 04:12:37;;;;;;;13.52;5.53;;;;;;;6.77;100.00;100547.06;5093940;28;20107;-79
2022/10/09 04:15:03;;;;;;;9.15;4.88;;;;;;;6.79;100.00;100559.13;5093809;28;20627;-79
2022/10/09 04:17:28;;;;;;;9.68;4.55;;;;;;;6.83;100.00;100565.13;5093750;28;20016;-79
2022/10/09 04:19:54;;;;;;;11.57;5.00;;;;;;;6.80;100.00;100562.56;5093438;28;20023;-79
2022/10/09 04:22:19;;;;;;;11.35;4.45;;;;;;;6.77;100.00;100553.09;5093786;28;20016;-79
2022/10/09 04:24:44;;;;;;;8.68;4.45;;;;;;;6.80;100.00;100563.44;5093512;28;20024;-79
2022/10/09 04:27:09;;;;;;;7.18;4.47;;;;;;;6.75;100.00;100553.16;5093693;28;20099;-79
2022/10/09 04:29:35;;;;;;;9.23;4.63;;;;;;;6.79;100.00;100560.88;5093468;28;20111;-79
2022/10/09 04:32:00;;;;;;;7.22;4.13;;;;;;;6.70;100.00;100554.06;5093226;28;20020;-79
2022/10/09 04:34:26;;;;;;;7.50;4.13;;;;;;;6.68;100.00;100548.94;5093462;28;20035;-79
2022/10/09 04:36:51;;;;;;;10.30;4.70;;;;;;;6.72;100.00;100560.94;5093328;28;20020;-79
2022/10/09 04:39:16;;;;;;;7.68;3.80;;;;;;;6.76;100.00;100566.94;5093226;28;20413;-79
2022/10/09 04:41:42;;;;;;;5.38;3.78;;;;;;;6.76;100.00;100569.53;5093395;28;20508;-79
2022/10/09 04:44:07;;;;;;;7.38;4.15;;;;;;;6.70;100.00;100559.25;5093133;28;20516;-79
2022/10/09 04:46:32;;;;;;;9.45;4.07;;;;;;;6.72;100.00;100565.28;5093128;28;20370;-79
2022/10/09 04:48:58;;;;;;;8.60;4.05;;;;;;;6.72;100.00;100563.53;5092900;28;20016;-79
2022/10/09 04:51:23;;;;;;;6.57;3.70;;;;;;;6.72;100.00;100566.13;5092990;28;20099;-79
2022/10/09 04:53:49;;;;;;;9.35;4.00;;;;;;;6.74;100.00;100579.03;5092987;28;20427;-79
2022/10/09 04:56:18;;;;;;;8.25;3.90;;;;;;;6.73;100.00;100578.19;5093010;28;20069;-79
2022/10/09 04:58:45;;;;;;;8.38;3.42;;;;;;;6.70;100.00;100587.72;5093176;28;20400;-79
2022/10/09 05:01:19;;;;;;;6.47;3.60;;;;;;;6.69;100.00;100584.28;5092315;28;20048;-79
2022/10/09 05:03:44;;;;;;;7.80;3.88;;;;;;;6.62;100.00;100580.13;5092806;28;20028;-78
2022/10/09 05:06:11;;;;;;;6.03;3.70;;;;;;;6.60;100.00;100570.66;5092549;28;20497;-79
2022/10/09 05:08:37;;;;;;;9.82;4.13;;;;;;;6.63;100.00;100579.22;5092832;28;20080;-79
2022/10/09 05:11:08;;;;;;;7.65;4.05;;;;;;;6.62;100.00;100581.84;5092427;28;20126;-79
2022/10/09 05:13:36;;;;;;;7.40;4.10;;;;;;;6.71;100.00;100599.81;5092707;28;20019;-79
2022/10/09 05:16:09;;;;;;;5.97;4.10;;;;;;;6.70;100.00;100598.09;5092404;28;20031;-79
2022/10/09 05:18:39;;;;;;;12.10;4.53;;;;;;;6.65;100.00;100598.16;5092559;28;20028;-79
2022/10/09 05:21:05;;;;;;;5.35;4.60;;;;;;;6.57;100.00;100583.63;5092427;28;20458;-79
2022/10/09 05:23:31;;;;;;;8.35;4.05;;;;;;;6.60;100.00;100604.31;5092596;28;20138;-79
2022/10/09 05:25:59;;;;;;;5.10;3.70;;;;;;;6.66;100.00;100617.16;5092291;28;20039;-79
2022/10/09 05:28:24;;;;;;;9.63;4.70;;;;;;;6.61;100.00;100609.44;5092415;28;20090;-79
2022/10/09 05:30:50;;;;;;;6.30;4.57;;;;;;;6.61;100.00;100604.25;5092105;28;20051;-79
2022/10/09 05:33:16;;;;;;;5.13;3.40;;;;;;;6.62;100.00;100611.19;5092588;28;20020;-79
2022/10/09 05:35:52;;;;;;;4.50;3.88;;;;;;;6.66;100.00;100618.03;5092645;28;20427;-79
2022/10/09 05:38:18;;;;;;;9.88;4.82;;;;;;;6.69;100.00;100611.91;5092426;28;20104;-79
2022/10/09 05:40:55;;;;;;;25.73;19.55;;;;;;;6.83;100.00;100622.09;5092386;28;20073;-79
2022/10/09 05:43:30;;;;;;;28.13;22.50;;;;;;;6.99;100.00;100631.28;5092134;28;20073;-79
2022/10/09 05:46:05;;;;;;;34.22;28.20;;;;;;;7.14;100.00;100632.78;5092093;28;20031;-79
2022/10/09 05:48:31;;;;;;;23.73;16.88;;;;;;;7.24;100.00;100621.38;5092611;28;20099;-79
2022/10/09 05:51:17;;;;;;;30.63;22.75;;;;;;;7.46;100.00;100630.50;5092028;28;20120;-79
2022/10/09 05:53:44;;;;;;;27.55;20.10;;;;;;;7.61;100.00;100618.97;5092179;28;20363;-80
2022/10/09 05:56:14;;;;;;;22.55;15.25;;;;;;;7.77;100.00;100635.09;5091863;28;20031;-80
2022/10/09 05:58:41;;;;;;;18.73;13.15;;;;;;;7.96;100.00;100633.88;5092207;28;20054;-80
2022/10/09 06:01:07;;;;;;;12.38;8.35;;;;;;;8.19;100.00;100641.16;5091706;28;20452;-79
2022/10/09 06:03:36;;;;;;;11.68;6.47;;;;;;;8.41;100.00;100645.94;5092109;28;20073;-80
2022/10/09 06:06:04;;;;;;;9.63;6.15;;;;;;;8.63;100.00;100641.97;5091149;28;20068;-80
2022/10/09 06:08:36;;;;;;;10.25;5.28;;;;;;;8.85;100.00;100636.25;5090117;28;20098;-80
2022/10/09 06:11:08;;;;;;;8.55;4.60;;;;;;;9.07;100.00;100645.28;5090903;28;20466;-80
2022/10/09 06:13:34;;;;;;;8.70;5.55;;;;;;;9.27;100.00;100641.31;5092875;28;20024;-80
2022/10/09 06:15:59;;;;;;;8.52;5.35;;;;;;;9.48;100.00;100645.94;5094317;28;20024;-80
2022/10/09 06:18:26;;;;;;;8.52;5.40;;;;;;;9.70;100.00;100641.91;5094606;28;20020;-80
2022/10/09 06:20:53;;;;;;;8.68;5.20;;;;;;;10.20;100.00;100651.78;5094356;28;20028;-80
2022/10/09 06:23:19;;;;;;;11.05;5.82;;;;;;;10.51;100.00;100646.53;5094799;28;20101;-80
2022/10/09 06:26:02;;;;;;;12.48;4.85;;;;;;;10.81;100.00;100662.97;5094690;28;20116;-79
2022/10/09 06:28:29;;;;;;;8.45;4.78;;;;;;;11.26;100.00;100661.56;5094629;28;20020;-80
2022/10/09 06:31:00;;;;;;;7.53;4.30;;;;;;;12.05;96.64;100664.03;5094210;28;20031;-80
2022/10/09 06:33:28;;;;;;;12.70;5.28;;;;;;;12.21;94.39;100656.47;5088025;28;20021;-80
2022/10/09 06:35:58;;;;;;;13.15;5.90;;;;;;;12.38;93.29;100661.06;5094093;28;20509;-80
2022/10/09 06:38:23;;;;;;;9.68;5.68;;;;;;;12.88;91.79;100668.69;5094473;28;20020;-80
2022/10/09 06:40:48;;;;;;;12.32;5.15;;;;;;;13.17;89.51;100665.75;5094279;28;20020;-80
2022/10/09 06:43:14;;;;;;;14.27;6.70;;;;;;;13.38;89.22;100666.66;5094087;28;20023;-80
2022/10/09 06:45:39;;;;;;;19.90;7.82;;;;;;;14.13;86.94;100667.78;5094233;28;20344;-80
2022/10/09 06:48:04;;;;;;;17.85;6.45;;;;;;;14.44;85.11;100673.31;5094132;28;20474;-80
2022/10/09 06:50:30;;;;;;;11.43;4.50;;;;;;;14.58;84.43;100669.22;5094356;28;20024;-80
2022/10/09 06:52:55;;;;;;;8.70;3.38;;;;;;;15.01;82.53;100686.41;5094242;28;20371;-82
2022/10/09 06:55:21;;;;;;;8.90;3.90;;;;;;;15.32;80.94;100692.78;5093666;28;20111;-82
2022/10/09 06:57:46;;;;;;;6.22;3.53;;;;;;;15.46;80.49;100682.44;5094113;28;20074;-82
2022/10/09 07:00:12;;;;;;;6.38;3.08;;;;;;;15.87;79.42;100688.22;5093809;28;20028;-82
2022/10/09 07:02:37;;;;;;;6.93;3.50;;;;;;;16.78;77.06;100689.50;5094524;28;20436;-82
2022/10/09 07:05:03;;;;;;;8.52;3.65;;;;;;;17.09;74.45;100685.97;5057204;28;1294866;-82
2022/10/09 07:07:28;;;;;;;7.65;3.63;;;;;;;16.88;74.19;100682.78;5095261;28;20028;-81
2022/10/09 07:09:54;;;;;;;7.45;3.45;;;;;;;16.84;74.37;100696.19;5095191;28;20032;-81
2022/10/09 07:12:19;;;;;;;7.57;3.63;;;;;;;16.91;73.23;100694.94;5094781;28;20447;-82
2022/10/09 07:14:44;;;;;;;10.52;3.92;;;;;;;16.89;73.11;100702.03;5094777;28;20051;-82
2022/10/09 07:17:10;;;;;;;5.55;3.28;;;;;;;16.74;73.04;100705.56;5094425;28;20111;-82
2022/10/09 07:19:35;;;;;;;6.68;3.10;;;;;;;16.56;73.81;100695.09;5094920;28;20099;-82
2022/10/09 07:22:00;;;;;;;7.35;2.75;;;;;;;16.43;73.46;100705.41;5094732;28;20012;-82
2022/10/09 07:24:26;;;;;;;6.35;2.83;;;;;;;16.31;74.01;100703.44;5094431;28;20024;-82
2022/10/09 07:26:54;;;;;;;6.93;3.25;;;;;;;16.22;74.41;100693.41;5095113;28;20027;-82
2022/10/09 07:29:19;;;;;;;8.02;3.25;;;;;;;16.13;74.51;100715.75;5094470;28;20028;-82
2022/10/09 07:31:45;;;;;;;7.03;3.33;;;;;;;16.11;74.70;100704.50;5093548;28;20120;-82
2022/10/09 07:34:11;;;;;;;7.00;4.90;;;;;;;16.12;74.83;100711.44;5094212;28;20093;-82
2022/10/09 07:36:36;;;;;;;7.63;3.92;;;;;;;16.15;75.04;100719.19;5094658;28;20631;-82
2022/10/09 07:39:03;;;;;;;4.95;2.85;;;;;;;16.08;75.09;100702.03;5094451;28;20032;-82
2022/10/09 07:41:29;;;;;;;7.93;3.60;;;;;;;16.10;75.13;100710.69;5094493;28;20043;-82
2022/10/09 07:43:54;;;;;;;6.25;3.03;;;;;;;16.10;74.85;100715.94;5094399;28;20023;-82
2022/10/09 07:46:23;;;;;;;7.53;3.60;;;;;;;16.10;75.22;100721.22;5094373;28;20028;-82
2022/10/09 07:48:49;;;;;;;14.18;6.10;;;;;;;16.06;75.09;100722.28;5094472;28;20024;-82
2022/10/09 07:51:25;;;;;;;13.70;5.63;;;;;;;16.04;75.41;100718.03;5094081;28;20024;-82
2022/10/09 07:53:51;;;;;;;11.18;4.45;;;;;;;15.98;75.59;100727.09;5094308;28;20054;-82
2022/10/09 07:56:21;;;;;;;10.27;3.13;;;;;;;15.94;75.20;100723.78;5093933;28;20102;-82
2022/10/09 07:58:49;;;;;;;5.38;2.72;;;;;;;15.90;75.73;100737.16;5094061;28;20031;-82
2022/10/09 08:01:14;;;;;;;7.93;2.70;;;;;;;15.80;75.48;100731.53;5093851;28;20363;-82
2022/10/09 08:03:40;;;;;;;6.10;2.95;;;;;;;15.78;75.77;100733.38;5094188;28;20032;-82
2022/10/09 08:06:05;;;;;;;8.85;3.15;;;;;;;15.82;76.48;100736.69;5093623;28;20463;-82
2022/10/09 08:08:31;;;;;;;7.03;2.30;;;;;;;15.75;76.63;100733.50;5094025;28;20045;-82
2022/10/09 08:10:56;;;;;;;6.13;2.83;;;;;;;15.73;76.43;100740.63;5093754;28;20016;-82
2022/10/09 08:13:22;;;;;;;8.45;2.78;;;;;;;15.78;76.25;100743.03;5093597;28;20026;-82
2022/10/09 08:15:47;;;;;;;8.07;2.90;;;;;;;15.77;76.96;100736.94;5093891;28;20066;-82
2022/10/09 08:18:12;;;;;;;7.30;2.92;;;;;;;15.76;76.78;100740.50;5093704;28;20051;-82
2022/10/09 08:20:38;;;;;;;5.65;2.53;;;;;;;15.73;76.29;100737.16;5093922;28;20055;-82
2022/10/09 08:23:04;;;;;;;9.00;2.67;;;;;;;15.62;76.48;100725.38;5093688;28;20023;-82
2022/10/09 08:25:34;;;;;;;7.68;2.25;;;;;;;15.59;76.21;100743.94;5094071;28;20107;-82
2022/10/09 08:27:59;;;;;;;6.40;2.33;;;;;;;15.42;76.62;100734.28;5093026;28;20027;-81
2022/10/09 08:30:25;;;;;;;5.53;2.65;;;;;;;15.37;77.34;100731.00;5093686;28;20027;-82
2022/10/09 08:32:50;;;;;;;5.47;2.92;;;;;;;15.33;77.23;100736.47;5093755;28;20023;-82
2022/10/09 08:35:16;;;;;;;5.18;2.28;;;;;;;15.31;77.55;100735.72;5091274;28;20020;-82
2022/10/09 08:37:41;;;;;;;9.80;3.72;;;;;;;15.28;77.67;100746.34;5093249;28;20016;-82
2022/10/09 08:40:10;;;;;;;5.68;2.47;;;;;;;15.18;78.06;100735.47;5092350;28;20478;-82
2022/10/09 08:42:45;;;;;;;5.32;2.47;;;;;;;15.13;78.26;100737.47;5080914;28;20020;-81
2022/10/09 08:45:18;;;;;;;8.52;2.90;;;;;;;15.08;78.35;100734.19;5081974;28;20123;-81
2022/10/09 08:47:59;;;;;;;7.90;2.97;;;;;;;15.10;78.69;100748.94;5080809;28;20110;-81
2022/10/09 08:50:33;;;;;;;8.63;2.80;;;;;;;15.09;78.70;100742.00;5075021;28;20031;-82
2022/10/09 08:53:28;;;;;;;4.70;2.70;;;;;;;15.09;78.83;100749.03;5073020;28;20024;-81
2022/10/09 08:55:58;;;;;;;8.15;3.00;;;;;;;15.07;79.31;100748.22;4991018;28;20038;-82
2022/10/09 08:58:28;;;;;;;7.07;2.80;;;;;;;14.95;78.64;100740.00;4997756;28;20030;-81
2022/10/09 09:01:13;;;;;;;5.90;2.50;;;;;;;14.93;78.64;100744.50;5006371;28;20497;-81
2022/10/09 09:04:29;;;;;;;5.50;2.17;;;;;;;14.80;78.67;100750.41;4933082;29;20039;-81
2022/10/09 09:07:18;;;;;;;8.82;2.72;;;;;;;14.73;79.12;100749.81;4857750;29;20541;-81
2022/10/09 09:10:02;;;;;;;11.32;2.90;;;;;;;14.72;78.97;100750.75;4857758;29;20034;-81
2022/10/09 09:12:52;;;;;;;7.90;2.60;;;;;;;14.74;80.12;100754.13;4857430;29;20042;-81
2022/10/09 09:15:20;;;;;;;8.50;2.90;;;;;;;14.71;79.95;100749.06;4857201;29;20091;-81
2022/10/09 09:17:58;;;;;;;8.43;2.55;;;;;;;14.56;78.78;100752.38;4857515;29;20036;-81
2022/10/09 09:20:29;;;;;;;9.88;3.65;;;;;;;14.53;80.05;100745.47;4853431;29;20030;-80
2022/10/09 09:22:56;;;;;;;;;;;;;;;14.65;80.50;100754.56;4849617;29;20036;-80
2022/10/09 09:25:23;;;;;;;8.38;2.70;;;;;;;14.60;80.31;100741.66;4847647;29;19916;-80
2022/10/09 09:27:51;;;;;;;5.78;2.35;;;;;;;14.76;81.04;100736.56;4839193;29;20379;-80
2022/10/09 09:30:28;;;;;;;3.72;2.22;;;;;;;14.96;79.63;100748.75;4853483;29;20037;-80
2022/10/09 09:33:19;;;;;;;5.55;2.28;;;;;;;15.22;78.88;100764.09;4913155;29;20474;-80
2022/10/09 09:36:09;;;;;;;4.85;2.47;;;;;;;15.35;77.49;100760.88;4927418;29;20040;-80
2022/10/09 09:38:35;;;;;;;7.10;2.47;;;;;;;15.21;76.82;100754.53;4919313;29;20119;-80
2022/10/09 09:41:03;;;;;;;5.90;2.20;;;;;;;15.02;75.56;100743.22;5001771;28;20580;-80
2022/10/09 09:43:28;;;;;;;3.25;2.08;;;;;;;14.72;75.39;100746.34;5072131;28;20028;-80
2022/10/09 09:45:56;;;;;;;11.07;2.40;;;;;;;14.50;76.38;100737.78;5072098;28;20071;-80
2022/10/09 09:48:35;;;;;;;5.47;1.98;;;;;;;14.39;77.11;100753.94;5071691;28;20028;-80
2022/10/09 09:51:02;;;;;;;3.42;1.90;;;;;;;14.28;77.51;100737.84;5071901;28;20107;-79
2022/10/09 09:53:33;;;;;;;5.13;1.90;;;;;;;14.26;78.20;100744.09;5072023;28;20037;-80
2022/10/09 09:55:59;;;;;;;7.88;2.40;;;;;;;14.22;78.00;100745.97;5088223;28;20019;-80
2022/10/09 09:58:38;;;;;;;7.25;2.80;;;;;;;14.19;78.07;100738.25;5084803;28;20024;-79
2022/10/09 10:01:06;;;;;;;6.32;2.90;;;;;;;14.14;78.03;100748.09;5091636;28;20043;-80
2022/10/09 10:03:33;;;;;;;6.32;2.13;;;;;;;14.11;77.47;100740.34;5091644;28;20024;-80
2022/10/09 10:05:58;;;;;;;4.65;2.00;;;;;;;14.10;77.12;100739.50;5091556;28;20425;-80
2022/10/09 10:08:31;;;;;;;4.50;2.00;;;;;;;14.20;77.56;100739.97;5091532;28;20078;-80
2022/10/09 10:11:05;;;;;;;8.30;2.00;;;;;;;14.33;77.37;100748.13;5091580;28;20027;-81
2022/10/09 10:13:31;;;;;;;7.38;3.30;;;;;;;14.36;76.63;100746.22;5091523;28;20412;-81
2022/10/09 10:15:57;;;;;;;5.85;2.15;;;;;;;14.38;76.61;100731.28;5091530;28;20034;-80
2022/10/09 10:18:27;;;;;;;10.00;2.97;;;;;;;14.67;76.24;100744.88;5089888;28;20020;-80
2022/10/09 10:20:55;;;;;;;5.28;2.55;;;;;;;15.01;75.74;100741.50;5091984;28;20089;-80
2022/10/09 10:23:22;;;;;;;5.97;2.60;;;;;;;15.34;75.15;100746.06;5091649;28;20016;-80
2022/10/09 10:25:50;;;;;;;6.63;1.98;;;;;;;15.54;73.59;100739.81;5091816;28;20024;-80
2022/10/09 10:28:23;;;;;;;5.72;1.85;;;;;;;15.73;73.64;100738.00;5090041;28;20028;-80
2022/10/09 10:30:50;;;;;;;4.57;1.95;;;;;;;15.87;72.50;100737.31;5071408;28;20103;-80
2022/10/09 10:33:21;;;;;;;3.67;1.90;;;;;;;15.95;72.05;100743.00;5071513;28;20017;-80
2022/10/09 10:35:51;;;;;;;6.90;2.45;;;;;;;15.99;72.21;100731.41;5071581;28;20069;-80
2022/10/09 10:38:34;;;;;;;4.95;1.88;;;;;;;16.08;72.01;100744.06;5070095;28;20367;-80
2022/10/09 10:41:21;;;;;;;8.40;1.90;;;;;;;16.06;71.37;100751.19;5071452;28;20056;-80
2022/10/09 10:43:53;;;;;;;5.80;2.45;;;;;;;15.88;70.63;100758.22;5071602;28;20025;-81
2022/10/09 10:46:26;;;;;;;7.78;2.78;;;;;;;15.55;71.10;100749.38;5071157;28;20085;-81
2022/10/09 10:48:52;;;;;;;4.35;2.05;;;;;;;15.17;71.03;100747.72;5071456;28;20032;-81
2022/10/09 10:51:38;;;;;;;11.68;2.30;;;;;;;14.88;71.97;100749.13;5071209;28;20024;-81
2022/10/09 10:54:11;;;;;;;6.68;2.25;;;;;;;14.53;72.49;100737.63;5071684;28;20099;-81
2022/10/09 10:56:42;;;;;;;4.10;2.15;;;;;;;14.39;73.21;100748.69;5071222;28;20107;-81
2022/10/09 10:59:43;;;;;;;6.88;2.15;;;;;;;14.18;73.63;100750.50;5071064;28;20027;-81
2022/10/09 11:02:08;;;;;;;4.60;1.77;;;;;;;14.10;74.62;100744.75;5074754;28;20035;-81
2022/10/09 11:04:53;;;;;;;6.47;2.15;;;;;;;14.14;74.81;100741.06;5075022;28;20467;-81
2022/10/09 11:07:38;;;;;;;5.47;2.10;;;;;;;14.20;74.41;100737.34;5074710;28;20387;-80
2022/10/09 11:10:31;;;;;;;4.75;1.95;;;;;;;14.35;73.37;100739.28;5074790;28;20025;-80
2022/10/09 11:13:10;;;;;;;5.45;1.75;;;;;;;14.59;73.56;100741.75;5074939;28;20025;-80
2022/10/09 11:16:02;;;;;;;6.13;2.22;;;;;;;14.83;73.63;100732.75;5074731;28;20038;-80
2022/10/09 11:18:55;;;;;;;3.58;1.95;;;;;;;15.19;72.94;100745.03;4992690;28;20046;-80
2022/10/09 11:22:01;;;;;;;6.25;2.45;;;;;;;15.38;73.23;100743.22;4992725;28;20033;-80
2022/10/09 11:24:48;;;;;;;6.45;2.17;;;;;;;15.50;71.55;100740.88;4992872;28;20200;-80
2022/10/09 11:27:49;;;;;;;4.07;1.92;;;;;;;15.36;69.41;100731.06;4992805;28;20030;-80
2022/10/09 11:30:17;;;;;;;7.43;2.42;;;;;;;15.27;69.56;100731.53;4953425;29;20059;-80
2022/10/09 11:32:53;;;;;;;3.35;1.52;;;;;;;15.36;68.76;100734.56;4953973;29;20069;-80
2022/10/09 11:35:23;;;;;;;3.00;1.50;;;;;;;15.40;69.00;100730.84;4953631;29;20045;-80
2022/10/09 11:38:01;;;;;;;5.47;2.15;;;;;;;15.45;69.74;100722.75;4953945;29;20046;-81